Time;durP1;ratioP1;P1;durP2;ratioP2;P2;SDS_P1;SDS_P2;PMS_P1;PMS_P2;Temp;Humidity;BMP_temperature;BMP_pressure;BME280_temperature;BME280_humidity;BME280_pressure;Samples;Min_cycle;Max_cycle;Signal;HPM_P1;HPM_P2
2023/09/12 00:01:06;;;;;;;14.30;9.00;;;;;;;;;;5014335;28;20501;-71
2023/09/12 00:03:32;;;;;;;9.73;8.83;;;;;;;;;;5014900;28;20407;-70
2023/09/12 00:05:58;;;;;;;10.37;7.80;;;;;;;;;;5013232;28;20463;-70
2023/09/12 00:08:24;;;;;;;13.90;8.97;;;;;;;;;;5014544;28;20442;-70
2023/09/12 00:11:10;;;;;;;8.47;6.90;;;;;;;;;;5014149;28;20522;-71
2023/09/12 00:13:36;;;;;;;9.77;7.43;;;;;;;;;;5014102;28;20434;-71
2023/09/12 00:16:02;;;;;;;11.70;7.80;;;;;;;;;;5014420;28;20825;-71
2023/09/12 00:18:28;;;;;;;14.50;8.40;;;;;;;;;;5014465;28;20827;-71
2023/09/12 00:20:54;;;;;;;8.13;7.27;;;;;;;;;;5014026;28;20811;-71
2023/09/12 00:23:21;;;;;;;8.30;7.27;;;;;;;;;;5014214;28;20416;-71
2023/09/12 00:25:47;;;;;;;11.80;7.80;;;;;;;;;;5014271;28;20695;-71
2023/09/12 00:28:13;;;;;;;9.60;6.97;;;;;;;;;;5014239;28;20403;-71
2023/09/12 00:30:39;;;;;;;10.60;7.20;;;;;;;;;;5014131;28;20431;-70
2023/09/12 00:33:05;;;;;;;14.40;7.33;;;;;;;;;;5012761;28;20419;-70
2023/09/12 00:35:31;;;;;;;8.27;7.43;;;;;;;;;;5014038;28;20419;-70
2023/09/12 00:37:57;;;;;;;10.83;7.70;;;;;;;;;;5013937;28;20414;-70
2023/09/12 00:40:23;;;;;;;9.50;7.20;;;;;;;;;;5013809;28;20466;-70
2023/09/12 00:42:49;;;;;;;9.00;6.53;;;;;;;;;;5013738;28;20431;-70
2023/09/12 00:45:15;;;;;;;9.43;7.27;;;;;;;;;;5013839;28;20463;-70
2023/09/12 00:47:41;;;;;;;8.50;6.13;;;;;;;;;;5013837;28;20461;-70
2023/09/12 00:50:08;;;;;;;9.70;7.07;;;;;;;;;;5013700;28;20461;-71
2023/09/12 00:52:35;;;;;;;9.83;7.13;;;;;;;;;;5013394;28;20410;-70
2023/09/12 00:55:02;;;;;;;8.90;7.10;;;;;;;;;;5013723;28;20430;-70
2023/09/12 00:57:28;;;;;;;8.30;7.07;;;;;;;;;;5013583;28;20415;-70
2023/09/12 00:59:55;;;;;;;10.57;7.30;;;;;;;;;;5013420;28;20434;-70
2023/09/12 01:02:22;;;;;;;11.07;8.40;;;;;;;;;;5013198;28;20430;-70
2023/09/12 01:04:48;;;;;;;13.30;7.97;;;;;;;;;;5013378;28;20411;-70
2023/09/12 01:07:14;;;;;;;11.53;6.70;;;;;;;;;;5013533;28;20456;-70
2023/09/12 01:09:41;;;;;;;9.60;7.40;;;;;;;;;;5013399;28;20403;-70
2023/09/12 01:12:07;;;;;;;10.37;6.47;;;;;;;;;;5013165;28;20437;-71
2023/09/12 01:14:33;;;;;;;10.23;8.20;;;;;;;;;;5012057;28;20422;-71
2023/09/12 01:16:59;;;;;;;10.13;7.00;;;;;;;;;;4979860;28;20912;-69
2023/09/12 01:19:25;;;;;;;12.23;6.80;;;;;;;;;;4974243;28;20421;-71
2023/09/12 01:22:04;;;;;;;7.97;6.33;;;;;;;;;;4973925;28;20958;-70
2023/09/12 01:24:36;;;;;;;10.50;6.80;;;;;;;;;;4973893;28;20423;-70
2023/09/12 01:27:21;;;;;;;8.07;6.60;;;;;;;;;;4973944;28;20429;-70
2023/09/12 01:29:49;;;;;;;12.70;7.00;;;;;;;;;;4974046;28;20432;-70
2023/09/12 01:32:15;;;;;;;7.07;6.37;;;;;;;;;;4973699;28;20428;-69
2023/09/12 01:34:41;;;;;;;8.63;6.70;;;;;;;;;;4974633;28;20412;-70
2023/09/12 01:37:07;;;;;;;8.77;7.50;;;;;;;;;;4974347;28;20782;-70
2023/09/12 01:39:33;;;;;;;10.80;7.60;;;;;;;;;;4973986;28;20432;-70
2023/09/12 01:42:00;;;;;;;10.53;8.07;;;;;;;;;;4973683;28;20432;-70
2023/09/12 01:44:28;;;;;;;8.93;6.27;;;;;;;;;;4973978;28;20411;-70
2023/09/12 01:46:55;;;;;;;13.27;7.50;;;;;;;;;;4974075;28;20585;-71
2023/09/12 01:49:23;;;;;;;9.10;7.67;;;;;;;;;;4974012;28;21093;-70
2023/09/12 01:51:49;;;;;;;10.97;8.73;;;;;;;;;;4972289;28;20479;-70
2023/09/12 01:54:15;;;;;;;13.00;7.63;;;;;;;;;;4975120;28;20417;-70
2023/09/12 01:56:41;;;;;;;11.03;7.50;;;;;;;;;;4975214;28;20754;-71
2023/09/12 01:59:07;;;;;;;8.37;7.17;;;;;;;;;;4974536;28;20421;-70
2023/09/12 02:01:33;;;;;;;9.07;6.77;;;;;;;;;;4974004;28;20456;-71
2023/09/12 02:03:59;;;;;;;8.20;6.70;;;;;;;;;;4974327;28;20511;-71
2023/09/12 02:06:25;;;;;;;13.30;7.80;;;;;;;;;;4973187;28;20858;-71
2023/09/12 02:08:51;;;;;;;9.47;6.37;;;;;;;;;;4974482;28;20823;-71
2023/09/12 02:11:17;;;;;;;7.63;6.80;;;;;;;;;;4974118;28;20464;-71
2023/09/12 02:13:43;;;;;;;14.70;6.83;;;;;;;;;;4974124;28;20413;-71
2023/09/12 02:16:09;;;;;;;14.50;7.17;;;;;;;;;;4973726;28;20767;-70
2023/09/12 02:18:35;;;;;;;8.87;6.57;;;;;;;;;;4973738;28;20909;-70
2023/09/12 02:21:00;;;;;;;8.20;6.93;;;;;;;;;;4973466;28;20495;-70
2023/09/12 02:23:26;;;;;;;12.10;7.50;;;;;;;;;;4973733;28;20785;-70
2023/09/12 02:25:52;;;;;;;8.27;7.43;;;;;;;;;;4973655;28;20464;-70
2023/09/12 02:28:18;;;;;;;11.70;8.50;;;;;;;;;;4973578;28;20412;-71
2023/09/12 02:30:44;;;;;;;15.13;8.60;;;;;;;;;;4973266;28;20801;-70
2023/09/12 02:33:10;;;;;;;13.30;8.03;;;;;;;;;;4973519;28;20452;-70
2023/09/12 02:35:36;;;;;;;14.90;8.77;;;;;;;;;;4973348;28;20943;-70
2023/09/12 02:38:02;;;;;;;11.77;8.60;;;;;;;;;;4973479;28;20508;-70
2023/09/12 02:40:28;;;;;;;10.53;8.53;;;;;;;;;;4973300;28;20444;-70
2023/09/12 02:42:54;;;;;;;9.80;8.30;;;;;;;;;;4973289;28;20413;-71
2023/09/12 02:45:20;;;;;;;10.00;7.17;;;;;;;;;;4973555;28;20464;-71
2023/09/12 02:47:46;;;;;;;9.63;6.60;;;;;;;;;;4973830;28;20573;-70
2023/09/12 02:50:12;;;;;;;11.53;7.60;;;;;;;;;;4972992;28;20465;-70
2023/09/12 02:52:38;;;;;;;7.43;6.63;;;;;;;;;;4972905;28;20405;-70
2023/09/12 02:55:04;;;;;;;12.43;8.07;;;;;;;;;;4973118;28;20449;-70
2023/09/12 02:57:30;;;;;;;13.97;8.67;;;;;;;;;;4973044;28;20416;-70
2023/09/12 02:59:56;;;;;;;10.50;8.17;;;;;;;;;;4973013;28;20778;-70
2023/09/12 03:02:22;;;;;;;8.30;6.90;;;;;;;;;;4972611;28;20539;-69
2023/09/12 03:04:48;;;;;;;9.63;7.10;;;;;;;;;;4972743;28;20842;-70
2023/09/12 03:07:14;;;;;;;11.67;7.90;;;;;;;;;;4973356;28;20416;-70
2023/09/12 03:09:39;;;;;;;10.33;6.40;;;;;;;;;;4972894;28;20448;-70
2023/09/12 03:12:06;;;;;;;10.53;7.67;;;;;;;;;;4972551;28;20432;-70
2023/09/12 03:14:32;;;;;;;10.00;7.10;;;;;;;;;;4973086;28;20415;-70
2023/09/12 03:16:58;;;;;;;9.60;7.47;;;;;;;;;;4972851;28;20500;-70
2023/09/12 03:19:24;;;;;;;10.07;6.07;;;;;;;;;;4972844;28;20952;-70
2023/09/12 03:21:50;;;;;;;8.20;6.07;;;;;;;;;;4973059;28;20472;-70
2023/09/12 03:24:18;;;;;;;14.33;7.17;;;;;;;;;;4973360;28;20417;-70
2023/09/12 03:26:44;;;;;;;11.30;8.10;;;;;;;;;;4972993;28;20555;-70
2023/09/12 03:29:10;;;;;;;8.07;7.13;;;;;;;;;;4972834;28;20870;-71
2023/09/12 03:31:36;;;;;;;11.00;9.30;;;;;;;;;;4972609;28;20515;-71
2023/09/12 03:34:02;;;;;;;22.13;9.10;;;;;;;;;;4972729;28;20416;-70
2023/09/12 03:36:28;;;;;;;17.13;8.20;;;;;;;;;;4972778;28;20420;-71
2023/09/12 03:38:54;;;;;;;10.17;7.37;;;;;;;;;;4972778;28;20413;-70
2023/09/12 03:41:22;;;;;;;11.20;7.80;;;;;;;;;;4972435;28;20468;-71
2023/09/12 03:43:47;;;;;;;11.03;8.17;;;;;;;;;;4972680;28;20413;-71
2023/09/12 03:46:14;;;;;;;14.63;11.33;;;;;;;;;;4972384;28;21005;-70
2023/09/12 03:48:40;;;;;;;11.03;8.00;;;;;;;;;;4973880;28;20413;-71
2023/09/12 03:51:05;;;;;;;13.37;9.73;;;;;;;;;;4975592;28;20801;-71
2023/09/12 03:53:31;;;;;;;11.93;7.80;;;;;;;;;;4975866;28;20425;-71
2023/09/12 03:55:59;;;;;;;10.90;7.60;;;;;;;;;;4975903;28;20479;-71
2023/09/12 03:58:24;;;;;;;8.53;7.63;;;;;;;;;;4975971;28;20515;-71
2023/09/12 04:00:50;;;;;;;10.70;9.03;;;;;;;;;;4975411;28;20551;-71
2023/09/12 04:03:16;;;;;;;14.07;9.87;;;;;;;;;;4975709;28;20456;-71
2023/09/12 04:05:42;;;;;;;14.33;8.43;;;;;;;;;;4975693;28;20461;-71
2023/09/12 04:08:08;;;;;;;8.03;7.23;;;;;;;;;;4975676;28;20463;-71
2023/09/12 04:10:34;;;;;;;9.67;7.50;;;;;;;;;;4975309;28;20791;-70
2023/09/12 04:13:00;;;;;;;9.10;6.30;;;;;;;;;;4975632;28;20424;-70
2023/09/12 04:15:26;;;;;;;8.93;6.77;;;;;;;;;;4975545;28;20447;-70
2023/09/12 04:17:53;;;;;;;10.13;7.73;;;;;;;;;;4975516;28;20467;-70
2023/09/12 04:20:19;;;;;;;12.13;7.57;;;;;;;;;;4975264;28;20444;-70
2023/09/12 04:22:45;;;;;;;8.97;7.50;;;;;;;;;;4975176;28;20420;-70
2023/09/12 04:25:11;;;;;;;9.90;8.00;;;;;;;;;;4975288;28;20830;-70
2023/09/12 04:27:37;;;;;;;10.97;7.83;;;;;;;;;;4975597;28;20408;-70
2023/09/12 04:30:03;;;;;;;11.30;8.03;;;;;;;;;;4975339;28;20435;-70
2023/09/12 04:32:30;;;;;;;11.10;8.30;;;;;;;;;;4975013;28;20417;-70
2023/09/12 04:34:56;;;;;;;12.47;9.60;;;;;;;;;;4975241;28;20437;-70
2023/09/12 04:37:22;;;;;;;15.47;6.40;;;;;;;;;;4975091;28;20616;-70
2023/09/12 04:39:48;;;;;;;10.60;8.07;;;;;;;;;;4975212;28;20408;-70
2023/09/12 04:42:14;;;;;;;10.77;8.33;;;;;;;;;;4974766;28;20444;-70
2023/09/12 04:44:41;;;;;;;8.23;6.87;;;;;;;;;;4975080;28;20413;-70
2023/09/12 04:47:07;;;;;;;9.30;7.50;;;;;;;;;;4975104;28;20451;-70
2023/09/12 04:49:33;;;;;;;10.70;7.87;;;;;;;;;;4974523;28;20428;-71
2023/09/12 04:51:59;;;;;;;9.17;7.77;;;;;;;;;;5008577;28;20439;-71
2023/09/12 04:54:25;;;;;;;12.80;8.47;;;;;;;;;;5014025;28;20450;-71
2023/09/12 04:56:51;;;;;;;12.83;8.63;;;;;;;;;;5014236;28;20548;-71
2023/09/12 04:59:17;;;;;;;11.33;9.40;;;;;;;;;;5013191;28;20506;-70
2023/09/12 05:01:43;;;;;;;11.90;7.83;;;;;;;;;;5013633;28;20446;-74
2023/09/12 05:04:09;;;;;;;10.23;7.47;;;;;;;;;;5014593;28;20508;-71
2023/09/12 05:06:35;;;;;;;14.10;9.47;;;;;;;;;;5013929;28;20557;-71
2023/09/12 05:09:01;;;;;;;9.13;7.90;;;;;;;;;;5013451;28;20407;-71
2023/09/12 05:11:27;;;;;;;9.50;8.53;;;;;;;;;;5013166;28;20513;-71
2023/09/12 05:13:53;;;;;;;13.20;9.27;;;;;;;;;;5013692;28;20494;-70
2023/09/12 05:16:19;;;;;;;10.13;8.73;;;;;;;;;;5001963;28;20420;-72
2023/09/12 05:18:45;;;;;;;12.10;7.80;;;;;;;;;;4993588;28;20498;-73
2023/09/12 05:21:11;;;;;;;9.57;8.57;;;;;;;;;;4991719;28;20551;-74
2023/09/12 05:23:37;;;;;;;11.07;7.90;;;;;;;;;;4992337;28;20435;-74
2023/09/12 05:26:03;;;;;;;13.93;8.57;;;;;;;;;;4993526;28;20475;-72
2023/09/12 05:28:29;;;;;;;13.37;8.10;;;;;;;;;;4993449;28;20495;-72
2023/09/12 05:30:55;;;;;;;12.87;8.87;;;;;;;;;;4991010;28;20909;-71
2023/09/12 05:33:21;;;;;;;10.33;8.03;;;;;;;;;;4993503;28;20481;-71
2023/09/12 05:35:47;;;;;;;10.70;9.53;;;;;;;;;;4992655;28;20424;-72
2023/09/12 05:38:13;;;;;;;12.43;8.70;;;;;;;;;;4997480;28;20439;-71
2023/09/12 05:40:39;;;;;;;9.43;7.90;;;;;;;;;;4992787;28;20525;-72
2023/09/12 05:43:05;;;;;;;9.73;7.77;;;;;;;;;;4993228;28;20424;-70
2023/09/12 05:45:32;;;;;;;10.20;8.37;;;;;;;;;;4992984;28;20464;-70
2023/09/12 05:47:58;;;;;;;7.03;6.07;;;;;;;;;;4993146;28;20416;-70
2023/09/12 05:50:24;;;;;;;12.43;8.00;;;;;;;;;;5005620;28;20526;-70
2023/09/12 05:52:50;;;;;;;12.43;8.20;;;;;;;;;;5011188;28;20502;-70
2023/09/12 05:55:17;;;;;;;11.20;8.17;;;;;;;;;;4997466;28;20416;-70
2023/09/12 05:57:43;;;;;;;13.33;8.77;;;;;;;;;;4992802;28;20606;-70
2023/09/12 06:00:11;;;;;;;13.57;9.07;;;;;;;;;;4992691;28;20491;-71
2023/09/12 06:02:38;;;;;;;9.23;8.23;;;;;;;;;;4992583;28;20426;-70
2023/09/12 06:05:04;;;;;;;11.90;9.47;;;;;;;;;;4992704;28;20866;-70
2023/09/12 06:07:32;;;;;;;10.23;6.20;;;;;;;;;;4992643;28;20415;-70
2023/09/12 06:09:58;;;;;;;9.43;8.53;;;;;;;;;;4991434;28;20459;-70
2023/09/12 06:12:24;;;;;;;8.77;7.97;;;;;;;;;;4992162;28;20415;-70
2023/09/12 06:14:50;;;;;;;9.43;7.73;;;;;;;;;;4992606;28;20416;-70
2023/09/12 06:17:16;;;;;;;12.00;8.47;;;;;;;;;;4992612;28;21208;-69
2023/09/12 06:19:41;;;;;;;13.73;7.30;;;;;;;;;;4992149;28;20514;-69
2023/09/12 06:22:07;;;;;;;9.63;7.90;;;;;;;;;;4991809;28;20555;-74
2023/09/12 06:24:33;;;;;;;8.43;7.47;;;;;;;;;;4992075;28;20181;-69
2023/09/12 06:26:59;;;;;;;9.00;8.20;;;;;;;;;;4997225;28;20475;-69
2023/09/12 06:29:25;;;;;;;9.30;7.83;;;;;;;;;;4993546;28;20474;-69
2023/09/12 06:31:51;;;;;;;8.03;7.30;;;;;;;;;;4992728;28;20446;-74
2023/09/12 06:34:17;;;;;;;9.90;8.00;;;;;;;;;;4992518;28;20431;-70
2023/09/12 06:36:44;;;;;;;8.77;7.37;;;;;;;;;;4992580;28;20498;-70
2023/09/12 06:39:10;;;;;;;9.63;8.73;;;;;;;;;;4993081;28;20903;-70
2023/09/12 06:41:37;;;;;;;8.23;7.43;;;;;;;;;;4992134;28;20869;-71
2023/09/12 06:44:05;;;;;;;11.77;7.93;;;;;;;;;;4992726;28;20871;-71
2023/09/12 06:46:31;;;;;;;9.40;8.30;;;;;;;;;;4992784;28;20526;-71
2023/09/12 06:48:56;;;;;;;12.43;8.27;;;;;;;;;;4992457;28;20783;-70
2023/09/12 06:51:25;;;;;;;10.73;8.40;;;;;;;;;;4992302;28;20460;-72
2023/09/12 06:53:51;;;;;;;10.93;7.03;;;;;;;;;;4991035;28;20467;-71
2023/09/12 06:56:17;;;;;;;11.77;9.10;;;;;;;;;;4991766;28;20535;-71
2023/09/12 06:58:43;;;;;;;9.27;7.07;;;;;;;;;;4992713;28;20907;-71
2023/09/12 07:01:09;;;;;;;10.60;7.30;;;;;;;;;;4992503;28;20451;-70
2023/09/12 07:03:36;;;;;;;10.73;8.70;;;;;;;;;;4992908;28;20525;-71
2023/09/12 07:06:02;;;;;;;9.27;7.90;;;;;;;;;;4992643;28;20806;-71
2023/09/12 07:08:29;;;;;;;13.30;7.60;;;;;;;;;;4992121;28;20923;-70
2023/09/12 07:10:56;;;;;;;7.80;6.83;;;;;;;;;;4991772;28;20424;-71
2023/09/12 07:13:23;;;;;;;8.50;6.97;;;;;;;;;;4992099;28;20415;-71
2023/09/12 07:15:49;;;;;;;11.03;6.90;;;;;;;;;;4992068;28;20420;-71
2023/09/12 07:18:15;;;;;;;11.43;7.97;;;;;;;;;;4992118;28;20495;-70
2023/09/12 07:20:41;;;;;;;9.53;8.07;;;;;;;;;;4991533;28;20435;-71
2023/09/12 07:23:07;;;;;;;7.97;7.27;;;;;;;;;;4992451;28;20412;-71
2023/09/12 07:25:43;;;;;;;7.87;6.70;;;;;;;;;;4995638;28;20542;-71
2023/09/12 07:28:09;;;;;;;11.80;6.27;;;;;;;;;;4995748;28;20418;-71
2023/09/12 07:30:35;;;;;;;10.37;7.63;;;;;;;;;;4994948;28;20435;-71
2023/09/12 07:33:02;;;;;;;8.83;7.90;;;;;;;;;;4995348;28;20443;-71
2023/09/12 07:35:30;;;;;;;9.20;8.20;;;;;;;;;;4995367;28;20422;-71
2023/09/12 07:37:56;;;;;;;13.00;9.37;;;;;;;;;;4995221;28;20412;-71
2023/09/12 07:40:22;;;;;;;12.17;8.77;;;;;;;;;;4995158;28;20801;-71
2023/09/12 07:42:48;;;;;;;9.43;8.43;;;;;;;;;;4994822;28;20416;-74
2023/09/12 07:45:14;;;;;;;10.17;8.87;;;;;;;;;;4995264;28;20455;-70
2023/09/12 07:47:40;;;;;;;10.80;9.67;;;;;;;;;;4995019;28;20427;-70
2023/09/12 07:50:06;;;;;;;11.83;9.27;;;;;;;;;;4993532;28;20412;-70
2023/09/12 07:52:32;;;;;;;13.00;10.23;;;;;;;;;;4994629;28;20554;-70
2023/09/12 07:55:02;;;;;;;9.53;7.83;;;;;;;;;;4994676;28;20531;-70
2023/09/12 07:57:28;;;;;;;8.60;7.70;;;;;;;;;;4994744;28;20498;-71
2023/09/12 07:59:54;;;;;;;11.83;9.20;;;;;;;;;;4994644;28;20415;-71
2023/09/12 08:02:20;;;;;;;8.73;7.93;;;;;;;;;;4993358;28;20927;-70
2023/09/12 08:04:46;;;;;;;12.30;8.90;;;;;;;;;;4994892;28;20411;-74
2023/09/12 08:07:12;;;;;;;9.67;7.40;;;;;;;;;;4994807;28;20791;-72
2023/09/12 08:09:49;;;;;;;10.90;9.77;;;;;;;;;;4994652;28;20419;-73
2023/09/12 08:12:15;;;;;;;12.93;8.80;;;;;;;;;;4994493;28;20962;-71
2023/09/12 08:14:41;;;;;;;8.40;7.47;;;;;;;;;;4995184;28;20789;-72
2023/09/12 08:17:07;;;;;;;9.00;8.20;;;;;;;;;;4994337;28;20415;-73
2023/09/12 08:19:33;;;;;;;10.10;8.00;;;;;;;;;;4994601;28;20268;-73
2023/09/12 08:21:59;;;;;;;8.87;7.90;;;;;;;;;;4994309;28;20428;-72
2023/09/12 08:24:25;;;;;;;10.30;9.30;;;;;;;;;;4994425;28;20419;-73
2023/09/12 08:26:51;;;;;;;11.20;8.80;;;;;;;;;;4994332;28;20252;-72
2023/09/12 08:29:16;;;;;;;8.23;7.53;;;35.90;1.00;;;;;;4994298;28;20185;-73
2023/09/12 08:31:42;;;;;;;12.20;8.90;;;36.20;1.00;;;;;;4994022;28;20435;-72
2023/09/12 08:34:07;;;;;;;10.57;9.30;;;37.00;1.00;;;;;;4993935;28;20187;-73
2023/09/12 08:36:33;;;;;;;13.70;8.60;;;37.60;1.00;;;;;;4994388;28;20648;-73
2023/09/12 08:39:00;;;;;;;8.00;7.40;;;37.30;1.00;;;;;;4994190;28;20626;-73
2023/09/12 08:41:26;;;;;;;8.97;8.10;;;35.60;1.00;;;;;;4993744;28;20224;-73
2023/09/12 08:43:51;;;;;;;9.60;8.70;;;34.20;1.00;;;;;;4994172;28;20501;-73
2023/09/12 08:46:18;;;;;;;8.90;8.13;;;32.90;1.00;;;;;;4993993;28;20200;-73
2023/09/12 08:48:46;;;;;;;9.13;8.17;;;31.80;1.00;;;;;;4993944;28;20195;-73
2023/09/12 08:51:12;;;;;;;11.00;9.93;;;30.70;1.00;;;;;;4993595;28;20431;-73
2023/09/12 08:53:38;;;;;;;10.47;9.43;;;29.80;1.00;;;;;;4993819;28;20964;-73
2023/09/12 08:56:04;;;;;;;10.73;8.43;;;29.20;1.00;;;;;;4993601;28;21160;-73
2023/09/12 08:58:33;;;;;;;9.27;8.30;;;28.60;1.20;;;;;;4993728;28;20184;-73
2023/09/12 09:00:59;;;;;;;9.47;8.47;;;28.30;2.70;;;;;;4993338;28;20459;-73
2023/09/12 09:03:26;;;;;;;11.20;8.23;;;28.00;3.20;;;;;;4993563;28;20423;-73
2023/09/12 09:05:52;;;;;;;9.00;7.80;;;27.90;4.40;;;;;;4993624;28;20946;-74
2023/09/12 09:08:21;;;;;;;15.97;8.23;;;27.70;4.50;;;;;;4993405;28;20781;-73
2023/09/12 09:11:03;;;;;;;9.10;8.30;;;27.60;5.10;;;;;;4993296;28;20510;-71
2023/09/12 09:13:29;;;;;;;13.03;9.47;;;27.50;5.50;;;;;;4992060;28;20447;-73
2023/09/12 09:16:22;;;;;;;9.67;8.77;;;27.50;5.60;;;;;;4993370;28;20431;-73
2023/09/12 09:19:05;;;;;;;10.03;8.97;;;27.60;6.30;;;;;;4993185;28;20211;-73
2023/09/12 09:21:32;;;;;;;10.27;7.80;;;27.80;5.60;;;;;;4991721;28;20435;-73
2023/09/12 09:24:00;;;;;;;7.83;7.13;;;27.80;5.20;;;;;;4991939;28;20791;-73
2023/09/12 09:26:46;;;;;;;10.33;8.33;;;28.00;5.10;;;;;;4993104;28;20998;-72
2023/09/12 09:29:50;;;;;;;10.07;6.30;;;28.20;4.50;;;;;;4993108;28;20412;-73
2023/09/12 09:32:21;;;;;;;9.03;8.13;;;28.40;4.40;;;;;;4970733;28;20532;-71
2023/09/12 09:34:47;;;;;;;13.20;8.20;;;28.40;3.70;;;;;;4989676;28;20416;-72
2023/09/12 09:37:42;;;;;;;11.00;9.90;;;28.50;3.90;;;;;;4992846;28;20816;-74
2023/09/12 09:40:11;;;;;;;7.93;7.13;;;28.60;3.70;;;;;;4987885;28;20208;-72
2023/09/12 09:42:37;;;;;;;11.43;7.90;;;28.70;3.60;;;;;;4992245;28;20438;-72
2023/09/12 09:45:09;;;;;;;8.30;7.50;;;28.90;3.20;;;;;;4992535;28;20459;-73
2023/09/12 09:47:37;;;;;;;8.10;7.40;;;29.10;1.90;;;;;;4992028;28;20447;-75
2023/09/12 09:50:33;;;;;;;9.03;8.17;;;29.10;1.60;;;;;;4992297;28;20765;-73
2023/09/12 09:53:00;;;;;;;10.23;9.33;;;29.30;1.60;;;;;;4990903;28;20463;-73
2023/09/12 09:55:25;;;;;;;9.60;8.77;;;29.50;1.60;;;;;;4992279;28;20412;-73
2023/09/12 09:57:52;;;;;;;9.50;8.60;;;29.60;1.00;;;;;;4992439;28;20764;-73
2023/09/12 10:00:20;;;;;;;8.47;7.67;;;29.70;1.00;;;;;;4992190;28;20680;-73
2023/09/12 10:02:48;;;;;;;7.90;7.20;;;29.60;1.00;;;;;;4992139;28;20458;-73
2023/09/12 10:05:15;;;;;;;7.93;7.27;;;29.70;1.00;;;;;;4992322;28;20549;-73
2023/09/12 10:07:42;;;;;;;7.97;7.17;;;29.80;1.00;;;;;;4992270;28;20498;-73
2023/09/12 10:10:08;;;;;;;7.60;7.00;;;29.90;1.00;;;;;;4992053;28;20786;-73
2023/09/12 10:12:36;;;;;;;13.87;7.57;;;30.00;1.00;;;;;;4991869;28;20523;-73
2023/09/12 10:15:04;;;;;;;11.50;8.20;;;30.20;1.00;;;;;;4992106;28;20443;-73
2023/09/12 10:17:36;;;;;;;8.87;8.07;;;30.40;1.00;;;;;;4992139;28;20408;-72
2023/09/12 10:20:10;;;;;;;13.57;9.00;;;30.60;1.00;;;;;;4992231;28;20419;-73
2023/09/12 10:22:58;;;;;;;16.47;9.00;;;30.80;1.00;;;;;;4992035;28;20827;-73
2023/09/12 10:25:24;;;;;;;9.90;7.87;;;30.90;1.00;;;;;;4992355;28;20488;-72
2023/09/12 10:27:51;;;;;;;9.07;8.23;;;30.60;1.00;;;;;;4992468;28;20408;-72
2023/09/12 10:30:18;;;;;;;9.33;8.43;;;30.70;1.00;;;;;;4992155;28;20538;-72
2023/09/12 10:32:46;;;;;;;9.60;8.70;;;30.90;1.00;;;;;;4992201;28;20934;-71
2023/09/12 10:35:11;;;;;;;8.37;7.53;;;31.00;1.00;;;;;;4992273;28;20778;-71
2023/09/12 10:37:39;;;;;;;9.23;8.40;;;30.80;1.00;;;;;;4992178;28;20423;-71
2023/09/12 10:40:07;;;;;;;8.50;7.70;;;30.90;1.00;;;;;;4991972;28;20173;-71
2023/09/12 10:42:34;;;;;;;8.33;7.40;;;30.70;1.00;;;;;;4992031;28;20450;-74
2023/09/12 10:45:07;;;;;;;8.67;7.87;;;30.70;1.00;;;;;;4991997;28;20951;-73
2023/09/12 10:47:35;;;;;;;9.80;8.87;;;30.80;1.00;;;;;;4992078;28;20470;-72
2023/09/12 10:50:01;;;;;;;8.70;7.93;;;30.90;1.00;;;;;;4992105;28;20891;-71
2023/09/12 10:52:28;;;;;;;8.53;7.83;;;30.90;1.00;;;;;;4991594;28;20454;-73
2023/09/12 10:54:54;;;;;;;8.83;8.20;;;30.90;1.00;;;;;;4992434;28;20738;-72
2023/09/12 10:57:20;;;;;;;7.90;7.30;;;31.00;1.00;;;;;;4993325;28;20408;-73
2023/09/12 11:00:13;;;;;;;9.47;8.57;;;31.20;1.00;;;;;;4996375;28;20420;-75
2023/09/12 11:02:40;;;;;;;8.60;7.87;;;31.20;1.00;;;;;;4996363;28;20443;-71
2023/09/12 11:05:33;;;;;;;8.97;8.27;;;31.00;1.00;;;;;;4996228;28;20408;-74
2023/09/12 11:08:01;;;;;;;8.67;7.87;;;31.10;1.00;;;;;;4996217;28;20850;-76
2023/09/12 11:10:32;;;;;;;9.23;8.40;;;31.20;1.00;;;;;;4996525;28;20439;-72
2023/09/12 11:12:58;;;;;;;9.60;8.77;;;31.20;1.00;;;;;;4995948;28;20427;-73
2023/09/12 11:15:26;;;;;;;8.90;8.10;;;31.30;1.00;;;;;;4994684;28;20450;-72
2023/09/12 11:18:05;;;;;;;8.73;8.03;;;31.40;1.00;;;;;;4996223;28;20423;-73
2023/09/12 11:20:51;;;;;;;8.80;7.90;;;31.40;1.00;;;;;;4995806;28;20435;-70
2023/09/12 11:23:17;;;;;;;9.20;7.40;;;31.60;1.00;;;;;;4995719;28;20509;-73
2023/09/12 11:25:43;;;;;;;10.03;9.07;;;31.80;1.00;;;;;;4995387;28;20482;-71
2023/09/12 11:28:09;;;;;;;9.30;8.50;;;32.00;1.00;;;;;;4995339;28;20418;-73
2023/09/12 11:30:34;;;;;;;9.23;8.50;;;32.10;1.00;;;;;;4995147;28;20197;-73
2023/09/12 11:33:04;;;;;;;9.10;8.30;;;32.20;1.00;;;;;;4995293;28;20548;-73
2023/09/12 11:35:30;;;;;;;9.10;8.40;;;32.10;1.00;;;;;;4995554;28;20196;-73
2023/09/12 11:37:59;;;;;;;10.43;8.40;;;32.10;1.00;;;;;;4995198;28;20758;-73
2023/09/12 11:40:26;;;;;;;9.13;8.43;;;31.80;1.00;;;;;;4994934;28;20204;-72
2023/09/12 11:42:52;;;;;;;8.97;8.27;;;31.90;1.00;;;;;;4994969;28;20419;-73
2023/09/12 11:45:20;;;;;;;8.83;7.97;;;32.00;1.00;;;;;;4994925;28;20467;-73
2023/09/12 11:47:46;;;;;;;8.70;7.90;;;32.20;1.00;;;;;;4994926;28;20419;-73
2023/09/12 11:50:32;;;;;;;8.60;7.90;;;32.40;1.00;;;;;;4994727;28;20948;-73
2023/09/12 11:53:03;;;;;;;8.90;8.00;;;32.60;1.00;;;;;;4994669;28;20554;-73
2023/09/12 11:55:31;;;;;;;7.00;6.50;;;32.70;1.00;;;;;;4994995;28;20424;-73
2023/09/12 11:57:57;;;;;;;9.70;8.77;;;32.70;1.00;;;;;;4994955;28;20427;-73
2023/09/12 12:00:25;;;;;;;10.33;9.43;;;32.80;1.00;;;;;;4994500;28;20455;-73
2023/09/12 12:02:51;;;;;;;8.90;8.30;;;33.00;1.00;;;;;;4994542;28;20663;-73
2023/09/12 12:05:16;;;;;;;10.43;9.57;;;33.00;1.00;;;;;;4994380;28;20455;-70
2023/09/12 12:07:42;;;;;;;9.20;8.33;;;32.90;1.00;;;;;;4994598;28;20181;-70
2023/09/12 12:10:08;;;;;;;9.17;8.30;;;32.80;1.00;;;;;;4993746;28;20232;-70
2023/09/12 12:12:33;;;;;;;9.00;8.20;;;32.70;1.00;;;;;;4994103;28;20419;-71
2023/09/12 12:14:59;;;;;;;8.90;8.20;;;32.60;1.00;;;;;;4994229;28;20177;-71
2023/09/12 12:17:24;;;;;;;8.87;8.17;;;32.70;1.00;;;;;;4994251;28;20191;-71
2023/09/12 12:19:50;;;;;;;10.13;8.17;;;33.00;1.00;;;;;;4994143;28;20275;-71
2023/09/12 12:22:16;;;;;;;10.40;9.60;;;33.20;1.00;;;;;;4993933;28;20197;-71
2023/09/12 12:24:46;;;;;;;8.30;7.63;;;33.10;1.00;;;;;;4994106;28;20473;-71
2023/09/12 12:27:14;;;;;;;8.93;8.23;;;33.20;1.00;;;;;;4993908;28;20649;-70
2023/09/12 12:29:40;;;;;;;8.80;8.13;;;33.20;1.00;;;;;;4994218;28;20423;-68
2023/09/12 12:32:06;;;;;;;9.57;8.67;;;33.00;1.00;;;;;;4993705;28;20806;-68
2023/09/12 12:34:31;;;;;;;8.17;7.33;;;32.90;1.00;;;;;;4994029;28;20714;-69
2023/09/12 12:36:57;;;;;;;10.50;9.43;;;33.00;1.00;;;;;;4994220;28;20460;-70
2023/09/12 12:39:23;;;;;;;17.50;9.87;;;33.10;1.00;;;;;;4994033;28;20344;-68
2023/09/12 12:41:53;;;;;;;25.60;9.43;;;33.30;1.00;;;;;;4993606;28;20450;-68
2023/09/12 12:44:18;;;;;;;13.83;9.03;;;33.30;1.00;;;;;;4993963;28;20951;-68
2023/09/12 12:46:52;;;;;;;10.33;9.43;;;33.40;1.00;;;;;;4992311;28;20539;-68
2023/09/12 12:49:18;;;;;;;8.80;8.10;;;33.30;1.00;;;;;;4993321;28;20263;-69
2023/09/12 12:51:45;;;;;;;10.13;7.57;;;33.00;1.00;;;;;;4993460;28;20523;-69
2023/09/12 12:54:11;;;;;;;9.20;8.30;;;32.80;1.00;;;;;;4993676;28;20791;-68
2023/09/12 12:56:37;;;;;;;9.37;8.53;;;32.50;1.00;;;;;;4993314;28;20482;-68
2023/09/12 12:59:06;;;;;;;9.23;8.43;;;32.40;1.00;;;;;;4993453;28;20235;-68
2023/09/12 13:01:37;;;;;;;10.10;7.70;;;32.40;1.00;;;;;;4992640;28;20517;-68
2023/09/12 13:04:05;;;;;;;8.40;7.60;;;32.40;1.00;;;;;;4993312;28;20495;-68
2023/09/12 13:06:35;;;;;;;10.10;9.20;;;32.50;1.00;;;;;;4993424;28;20811;-69
2023/09/12 13:09:04;;;;;;;8.40;7.60;;;32.60;1.00;;;;;;4993358;28;20860;-70
2023/09/12 13:11:30;;;;;;;9.20;8.40;;;32.70;1.00;;;;;;4992828;28;20557;-69
2023/09/12 13:13:56;;;;;;;9.33;8.63;;;32.70;1.00;;;;;;4993284;28;20407;-69
2023/09/12 13:16:21;;;;;;;9.17;8.27;;;32.60;1.00;;;;;;4993185;28;20679;-69
2023/09/12 13:18:47;;;;;;;9.23;8.43;;;32.50;1.00;;;;;;4993052;28;20760;-69
2023/09/12 13:21:12;;;;;;;10.13;9.33;;;32.60;1.00;;;;;;4991669;28;20723;-69
2023/09/12 13:23:39;;;;;;;11.63;8.97;;;33.00;1.00;;;;;;4992953;28;20188;-69
2023/09/12 13:26:06;;;;;;;7.70;7.17;;;33.40;1.00;;;;;;4993156;28;20209;-69
2023/09/12 13:28:32;;;;;;;8.73;7.67;;;33.60;1.00;;;;;;4993696;28;20415;-69
2023/09/12 13:30:57;;;;;;;8.23;7.53;;;33.70;1.00;;;;;;4993212;28;20462;-69
2023/09/12 13:33:23;;;;;;;8.37;7.67;;;33.70;1.00;;;;;;4993389;28;20188;-69
2023/09/12 13:35:49;;;;;;;9.60;8.70;;;33.90;1.00;;;;;;4993963;28;20648;-70
2023/09/12 13:38:16;;;;;;;10.20;7.30;;;34.20;1.00;;;;;;4993769;28;20260;-70
2023/09/12 13:40:43;;;;;;;8.20;7.60;;;34.40;1.00;;;;;;4993460;28;20514;-70
2023/09/12 13:43:16;;;;;;;9.07;8.40;;;34.50;1.00;;;;;;5109955;27;20527;-70
2023/09/12 13:45:41;;;;;;;9.53;8.60;;;34.70;1.00;;;;;;5109793;28;20444;-71
2023/09/12 13:48:08;;;;;;;9.83;9.03;;;34.90;1.00;;;;;;5109971;28;20184;-71
2023/09/12 13:50:34;;;;;;;10.63;8.27;;;34.60;1.00;;;;;;5109555;28;20184;-71
2023/09/12 13:53:03;;;;;;;9.63;8.63;;;34.20;1.00;;;;;;5109333;28;20440;-71